Aviation Digital Data Service (ADDS)

Output produced by METARs form (1224 UTC 19 January 2019)
found at http://www.aviationweather.gov/metar/data/
 
Forecast for: AGGN (GIZO/NUSATUPE , SB)
Text: TAF AGGN 191120Z 1912/2012 VRB03KT 9999 -SHRA SCT016 BKN100
Forecast period: 1200 UTC 19 January 2019 to 1200 UTC 20 January 2019
Forecast type: FROM: standard forecast or significant change
Winds: variable direction winds at 3 MPH (3 knots; 1.5 m/s)
Visibility: 6 or more miles 10+ km)
Ceiling: 10000 feet AGL
Clouds: scattered clouds at 1600 feet AGL
broken clouds at 10000 feet AGL
Weather: -SHRA  (light rain showers)
Text: PROB40 INTER 1912/1918 5000 SHRA SCT007 BKN027 Q 1008 1006 1005 1007
Forecast period: 1200 to 1800 UTC 19 January 2019
Forecast type: TEMPORARY: The following changes expected for less than half the time period
Visibility: 3 miles (5 km)
Ceiling: 2700 feet AGL
Clouds: scattered clouds at 700 feet AGL
broken clouds at 2700 feet AGL
Weather: SHRA  (rain showers)